createdAt,value
2022-10-16T00:01:23.202Z,96189.47
2022-10-16T00:03:51.025Z,96197.63
2022-10-16T00:06:20.818Z,96197.28
2022-10-16T00:08:50.552Z,96205.53
2022-10-16T00:11:20.393Z,96206.59
2022-10-16T00:13:51.615Z,96210.88
2022-10-16T00:16:19.899Z,96204.31
2022-10-16T00:18:47.423Z,96204.38
2022-10-16T00:21:16.916Z,96199.84
2022-10-16T00:23:44.600Z,96208.13
2022-10-16T00:26:16.028Z,96205.91
2022-10-16T00:28:43.823Z,96204.91
2022-10-16T00:31:13.823Z,96212.75
2022-10-16T00:33:42.189Z,96201.53
2022-10-16T00:36:12.994Z,96194.59
2022-10-16T00:38:40.892Z,96197.66
2022-10-16T00:41:09.327Z,96198.66
2022-10-16T00:43:42.634Z,96202.38
2022-10-16T00:46:17.463Z,96197.44
2022-10-16T00:48:50.277Z,96193.38
2022-10-16T00:51:21.262Z,96201.38
2022-10-16T00:53:49.315Z,96206.91
2022-10-16T00:56:17.012Z,96211.69
2022-10-16T00:58:46.135Z,96208.81
2022-10-16T01:01:13.977Z,96205.75
2022-10-16T01:03:41.814Z,96199.13
2022-10-16T01:06:20.775Z,96198.31
2022-10-16T01:09:00.272Z,96206.97
2022-10-16T01:11:35.730Z,96205.31
2022-10-16T01:14:13.292Z,96218.00
2022-10-16T01:16:45.712Z,96226.72
2022-10-16T01:19:19.125Z,96227.34
2022-10-16T01:21:49.997Z,96233.09
2022-10-16T01:24:27.196Z,96233.72
2022-10-16T01:27:09.432Z,96229.28
2022-10-16T01:29:42.959Z,96237.75
2022-10-16T01:32:16.833Z,96230.78
2022-10-16T01:34:51.422Z,96236.78
2022-10-16T01:37:29.449Z,96242.97
2022-10-16T01:40:01.066Z,96241.31
2022-10-16T01:42:36.300Z,96241.78
2022-10-16T01:45:07.425Z,96245.25
2022-10-16T01:47:37.365Z,96240.13
2022-10-16T01:50:06.686Z,96233.13
2022-10-16T01:52:37.039Z,96237.47
2022-10-16T01:55:08.388Z,96244.47
2022-10-16T01:57:40.163Z,96239.22
2022-10-16T02:00:12.384Z,96252.03
2022-10-16T02:02:42.991Z,96253.75
2022-10-16T02:05:18.846Z,96248.09
2022-10-16T02:07:46.435Z,96257.41
2022-10-16T02:10:14.087Z,96265.34
2022-10-16T02:12:47.971Z,96262.28
2022-10-16T02:15:15.563Z,96254.38
2022-10-16T02:17:43.102Z,96261.91
2022-10-16T02:20:11.752Z,96263.03
2022-10-16T02:22:44.863Z,96255.34
2022-10-16T02:25:17.223Z,96244.09
2022-10-16T02:27:53.408Z,96238.88
2022-10-16T02:30:26.724Z,96247.97
2022-10-16T02:32:55.699Z,96239.94
2022-10-16T02:35:25.403Z,96252.09
2022-10-16T02:37:54.215Z,96255.75
2022-10-16T02:40:24.487Z,96264.84
2022-10-16T02:42:55.968Z,96275.19
2022-10-16T02:45:24.157Z,96275.50
2022-10-16T02:47:51.663Z,96277.31
2022-10-16T02:50:19.325Z,96272.13
2022-10-16T02:52:46.828Z,96265.63
2022-10-16T02:55:14.412Z,96262.94
2022-10-16T02:57:42.156Z,96266.50
2022-10-16T03:00:14.593Z,96254.75
2022-10-16T03:02:42.948Z,96255.97
2022-10-16T03:05:11.634Z,96266.31
2022-10-16T03:07:39.691Z,96270.41
2022-10-16T03:10:08.224Z,96270.84
2022-10-16T03:12:35.744Z,96269.19
2022-10-16T03:15:03.335Z,96274.34
2022-10-16T03:17:33.772Z,96282.81
2022-10-16T03:20:01.313Z,96270.84
2022-10-16T03:22:28.824Z,96274.53
2022-10-16T03:24:56.345Z,96275.72
2022-10-16T03:27:24.109Z,96273.28
2022-10-16T03:29:51.883Z,96269.19
2022-10-16T03:32:19.379Z,96274.16
2022-10-16T03:34:48.255Z,96269.00
2022-10-16T03:37:15.791Z,96272.47
2022-10-16T03:39:43.315Z,96268.78
2022-10-16T03:42:10.827Z,96266.78
2022-10-16T03:44:38.347Z,96265.13
2022-10-16T03:47:05.855Z,96261.78
2022-10-16T03:49:33.375Z,96269.72
2022-10-16T03:52:02.440Z,96272.09
2022-10-16T03:54:29.952Z,96271.44
2022-10-16T03:56:57.450Z,96269.16
2022-10-16T03:59:25.072Z,96265.06
2022-10-16T04:01:52.572Z,96277.63
2022-10-16T04:04:20.316Z,96277.00
2022-10-16T04:06:47.812Z,96277.41
2022-10-16T04:09:16.759Z,96278.84
2022-10-16T04:11:44.597Z,96279.47
2022-10-16T04:14:12.393Z,96278.84
2022-10-16T04:16:39.892Z,96282.72
2022-10-16T04:19:07.375Z,96278.41
2022-10-16T04:21:34.889Z,96285.16
2022-10-16T04:24:02.411Z,96283.03
2022-10-16T04:26:31.396Z,96280.22
2022-10-16T04:28:59.152Z,96290.69
2022-10-16T04:31:26.922Z,96292.88
2022-10-16T04:33:54.428Z,96302.59
2022-10-16T04:36:24.255Z,96309.44
2022-10-16T04:38:54.324Z,96313.72
2022-10-16T04:41:21.845Z,96308.88
2022-10-16T04:43:50.688Z,96305.16
2022-10-16T04:46:18.208Z,96306.03
2022-10-16T04:48:45.916Z,96310.94
2022-10-16T04:51:13.429Z,96310.94
2022-10-16T04:53:40.979Z,96315.69
2022-10-16T04:56:08.619Z,96311.63
2022-10-16T04:58:36.125Z,96316.16
2022-10-16T05:01:05.192Z,96317.09
2022-10-16T05:03:32.711Z,96316.31
2022-10-16T05:06:00.253Z,96313.53
2022-10-16T05:08:27.759Z,96318.72
2022-10-16T05:10:55.307Z,96321.66
2022-10-16T05:13:24.116Z,96315.78
2022-10-16T05:15:52.068Z,96327.31
2022-10-16T05:18:20.940Z,96327.97
2022-10-16T05:20:48.459Z,96335.69
2022-10-16T05:23:16.015Z,96332.66
2022-10-16T05:25:43.530Z,96325.00
2022-10-16T05:28:11.044Z,96327.53
2022-10-16T05:30:39.405Z,96317.28
2022-10-16T05:33:06.908Z,96309.72
2022-10-16T05:35:35.959Z,96294.09
2022-10-16T05:38:03.460Z,96293.28
2022-10-16T05:40:30.972Z,96299.16
2022-10-16T05:42:58.491Z,96303.84
2022-10-16T05:45:26.014Z,96300.69
2022-10-16T05:47:53.539Z,96299.13
2022-10-16T05:50:21.106Z,96305.88
2022-10-16T05:52:49.954Z,96310.19
2022-10-16T05:55:17.552Z,96313.72
2022-10-16T05:57:45.158Z,96330.19
2022-10-16T06:00:13.183Z,96325.50
2022-10-16T06:02:40.794Z,96317.97
2022-10-16T06:05:08.640Z,96328.16
2022-10-16T06:07:36.785Z,96334.78
2022-10-16T06:10:07.005Z,96333.50
2022-10-16T06:12:34.506Z,96343.38
2022-10-16T06:15:02.042Z,96341.66
2022-10-16T06:17:29.610Z,96358.72
2022-10-16T06:19:57.269Z,96367.19
2022-10-16T06:22:24.807Z,96363.81
2022-10-16T06:24:52.330Z,96366.50
2022-10-16T06:27:21.201Z,96369.69
2022-10-16T06:29:48.678Z,96373.84
2022-10-16T06:32:16.183Z,96379.97
2022-10-16T06:34:44.271Z,96385.63
2022-10-16T06:37:11.841Z,96383.81
2022-10-16T06:39:39.885Z,96392.56
2022-10-16T06:42:07.396Z,96393.59
2022-10-16T06:44:36.252Z,96395.38
2022-10-16T06:47:04.703Z,96403.81
2022-10-16T06:49:32.246Z,96420.91
2022-10-16T06:51:59.808Z,96410.50
2022-10-16T06:54:27.725Z,96415.91
2022-10-16T06:56:55.468Z,96428.50
2022-10-16T06:59:23.027Z,96426.81
2022-10-16T07:01:51.884Z,96429.38
2022-10-16T07:04:19.643Z,96422.84
2022-10-16T07:06:47.157Z,96422.28
2022-10-16T07:09:14.696Z,96429.19
2022-10-16T07:11:42.780Z,96437.69
2022-10-16T07:14:17.417Z,96443.47
2022-10-16T07:16:44.987Z,96445.31
2022-10-16T07:19:15.755Z,96439.31
2022-10-16T07:21:43.571Z,96442.22
2022-10-16T07:24:14.777Z,96438.56
2022-10-16T07:26:43.239Z,96441.16
2022-10-16T07:29:15.744Z,96432.53
2022-10-16T07:31:43.986Z,96428.72
2022-10-16T07:34:12.147Z,96428.91
2022-10-16T07:39:13.511Z,96428.00
2022-10-16T07:41:41.036Z,96434.66
2022-10-16T07:44:08.919Z,96436.97
2022-10-16T07:46:37.422Z,96441.78
2022-10-16T07:49:04.967Z,96447.75
2022-10-16T07:51:32.621Z,96458.25
2022-10-16T07:54:01.504Z,96449.22
2022-10-16T07:56:29.033Z,96447.38
2022-10-16T07:58:57.395Z,96455.47
2022-10-16T08:01:24.984Z,96460.84
2022-10-16T08:03:53.673Z,96464.34
2022-10-16T08:06:26.914Z,96465.22
2022-10-16T08:08:56.309Z,96465.22
2022-10-16T08:11:25.605Z,96460.94
2022-10-16T08:13:53.225Z,96456.75
2022-10-16T08:16:20.769Z,96461.91
2022-10-16T08:18:48.347Z,96467.13
2022-10-16T08:21:20.406Z,96479.50
2022-10-16T08:23:52.991Z,96477.22
2022-10-16T08:26:28.234Z,96470.22
2022-10-16T08:28:56.412Z,96476.13
2022-10-16T08:31:24.159Z,96482.75
2022-10-16T08:33:53.062Z,96474.47
2022-10-16T08:36:20.614Z,96468.06
2022-10-16T08:38:50.113Z,96453.78
2022-10-16T08:41:32.838Z,96462.25
2022-10-16T08:44:26.836Z,96457.75
2022-10-16T08:47:04.852Z,96465.22
2022-10-16T08:49:33.098Z,96452.28
2022-10-16T08:52:01.121Z,96449.06
2022-10-16T08:54:34.871Z,96455.00
2022-10-16T08:57:11.463Z,96467.09
2022-10-16T08:59:39.070Z,96472.97
2022-10-16T09:02:25.676Z,96480.09
2022-10-16T09:05:02.179Z,96478.75
2022-10-16T09:07:35.812Z,96480.44
2022-10-16T09:10:20.540Z,96484.81
2022-10-16T09:12:56.080Z,96476.16
2022-10-16T09:15:34.088Z,96486.84
2022-10-16T09:18:07.168Z,96486.19
2022-10-16T09:20:44.355Z,96488.00
2022-10-16T09:23:17.911Z,96487.38
2022-10-16T09:25:48.578Z,96489.41
2022-10-16T09:28:17.983Z,96489.25
2022-10-16T09:30:46.561Z,96491.59
2022-10-16T09:33:15.504Z,96504.53
2022-10-16T09:35:45.998Z,96501.66
2022-10-16T09:38:26.285Z,96503.00
2022-10-16T09:40:58.858Z,96509.25
2022-10-16T09:43:40.991Z,96502.50
2022-10-16T09:46:10.838Z,96511.84
2022-10-16T09:48:41.367Z,96506.78
2022-10-16T09:51:20.596Z,96508.63
2022-10-16T09:53:49.843Z,96512.44
2022-10-16T09:56:24.573Z,96516.31
2022-10-16T09:58:55.063Z,96522.56
2022-10-16T10:01:24.540Z,96509.28
2022-10-16T10:03:53.701Z,96511.94
2022-10-16T10:06:25.807Z,96512.59
2022-10-16T10:09:03.764Z,96504.13
2022-10-16T10:11:50.765Z,96509.25
2022-10-16T10:14:37.026Z,96511.25
2022-10-16T10:17:17.302Z,96507.66
2022-10-16T10:19:49.597Z,96511.84
2022-10-16T10:22:27.010Z,96515.66
2022-10-16T10:25:19.468Z,96511.72
2022-10-16T10:28:02.429Z,96508.28
2022-10-16T10:30:39.200Z,96515.28
2022-10-16T10:33:20.742Z,96510.06
2022-10-16T10:35:57.509Z,96514.88
2022-10-16T10:38:36.743Z,96516.16
2022-10-16T10:41:18.087Z,96511.16
2022-10-16T10:43:57.735Z,96510.56
2022-10-16T10:46:34.173Z,96511.72
2022-10-16T10:49:22.623Z,96511.72
2022-10-16T10:52:01.380Z,96512.91
2022-10-16T10:54:37.840Z,96514.44
2022-10-16T10:57:11.684Z,96509.16
2022-10-16T11:00:18.231Z,96501.72
2022-10-16T11:02:54.133Z,96511.78
2022-10-16T11:05:33.045Z,96502.00
2022-10-16T11:08:02.788Z,96508.34
2022-10-16T11:10:36.517Z,96503.88
2022-10-16T11:13:16.476Z,96507.66
2022-10-16T11:15:46.284Z,96512.03
2022-10-16T11:18:21.955Z,96509.00
2022-10-16T11:20:55.419Z,96513.28
2022-10-16T11:23:28.135Z,96510.63
2022-10-16T11:26:01.332Z,96506.34
2022-10-16T11:28:34.609Z,96511.44
2022-10-16T11:31:06.959Z,96508.84
2022-10-16T11:33:41.862Z,96516.44
2022-10-16T11:36:16.098Z,96504.16
2022-10-16T11:38:49.174Z,96501.94
2022-10-16T11:41:25.788Z,96505.97
2022-10-16T11:44:07.539Z,96508.16
2022-10-16T11:46:52.568Z,96518.19
2022-10-16T11:49:32.357Z,96497.41
2022-10-16T11:52:10.730Z,96492.72
2022-10-16T11:54:47.392Z,96489.06
2022-10-16T11:57:19.419Z,96497.03
2022-10-16T11:59:53.491Z,96492.94
2022-10-16T12:02:40.525Z,96495.56
2022-10-16T12:05:24.054Z,96497.72
2022-10-16T12:08:02.213Z,96491.63
2022-10-16T12:10:32.969Z,96495.22
2022-10-16T12:13:00.695Z,96494.22
2022-10-16T12:15:47.447Z,96493.59
2022-10-16T12:18:24.252Z,96503.00
2022-10-16T12:21:00.297Z,96493.28
2022-10-16T12:23:28.188Z,96497.44
2022-10-16T12:25:56.993Z,96502.69
2022-10-16T12:28:29.716Z,96507.03
2022-10-16T12:30:59.645Z,96496.88
2022-10-16T12:33:29.032Z,96504.88
2022-10-16T12:35:59.129Z,96514.38
2022-10-16T12:38:29.857Z,96516.88
2022-10-16T12:41:01.832Z,96520.50
2022-10-16T12:43:39.161Z,96516.41
2022-10-16T12:46:24.239Z,96522.00
2022-10-16T12:49:08.335Z,96515.41
2022-10-16T12:51:39.107Z,96514.25
2022-10-16T12:54:14.396Z,96520.59
2022-10-16T12:56:57.472Z,96520.09
2022-10-16T12:59:34.674Z,96526.91
2022-10-16T13:02:28.288Z,96523.22
2022-10-16T13:05:15.646Z,96527.88
2022-10-16T13:07:58.282Z,96522.53
2022-10-16T13:10:30.717Z,96523.63
2022-10-16T13:13:15.812Z,96521.66
2022-10-16T13:15:54.099Z,96519.69
2022-10-16T13:18:27.490Z,96530.97
2022-10-16T13:21:07.983Z,96534.41
2022-10-16T13:26:25.052Z,96524.19
2022-10-16T13:28:52.678Z,96529.63
2022-10-16T13:31:23.731Z,96528.38
2022-10-16T13:33:55.650Z,96527.66
2022-10-16T13:36:24.922Z,96533.94
2022-10-16T13:39:11.670Z,96530.47
2022-10-16T13:41:39.329Z,96528.28
2022-10-16T13:44:13.101Z,96547.59
2022-10-16T13:46:40.624Z,96548.94
2022-10-16T13:49:14.972Z,96547.41
2022-10-16T13:51:42.626Z,96541.94
2022-10-16T13:54:13.327Z,96545.59
2022-10-16T13:56:42.165Z,96556.09
2022-10-16T13:59:26.916Z,96549.06
2022-10-16T14:01:56.691Z,96541.59
2022-10-16T14:04:25.437Z,96538.94
2022-10-16T14:06:53.535Z,96541.13
2022-10-16T14:09:27.506Z,96534.53
2022-10-16T14:11:58.727Z,96554.22
2022-10-16T14:14:28.981Z,96550.91
2022-10-16T14:16:56.835Z,96544.41
2022-10-16T14:19:27.215Z,96547.16
2022-10-16T14:21:55.320Z,96544.56
2022-10-16T14:24:32.987Z,96545.06
2022-10-16T14:27:01.114Z,96535.06
2022-10-16T14:29:32.237Z,96544.16
2022-10-16T14:32:01.893Z,96547.47
2022-10-16T14:34:33.705Z,96557.81
2022-10-16T14:37:10.831Z,96555.69
2022-10-16T14:39:39.739Z,96556.34
2022-10-16T14:42:16.907Z,96556.41
2022-10-16T14:44:44.552Z,96551.78
2022-10-16T14:47:17.764Z,96554.28
2022-10-16T14:49:45.296Z,96552.53
2022-10-16T14:52:13.940Z,96556.19
2022-10-16T14:54:43.328Z,96554.69
2022-10-16T14:57:19.232Z,96561.25
2022-10-16T14:59:48.112Z,96559.91
2022-10-16T15:02:24.682Z,96559.91
2022-10-16T15:04:52.282Z,96560.81
2022-10-16T15:07:19.815Z,96550.16
2022-10-16T15:09:49.457Z,96545.31
2022-10-16T15:12:17.637Z,96556.22
2022-10-16T15:14:45.188Z,96553.06
2022-10-16T15:17:14.621Z,96560.69
2022-10-16T15:19:44.059Z,96557.00
2022-10-16T15:22:13.111Z,96567.53
2022-10-16T15:24:40.672Z,96568.22
2022-10-16T15:27:09.519Z,96558.69
2022-10-16T15:29:37.047Z,96568.53
2022-10-16T15:32:04.841Z,96564.16
2022-10-16T15:34:32.341Z,96569.47
2022-10-16T15:37:00.743Z,96573.34
2022-10-16T15:39:28.246Z,96575.97
2022-10-16T15:41:55.794Z,96570.53
2022-10-16T15:44:27.031Z,96571.72
2022-10-16T15:46:56.583Z,96567.63
2022-10-16T15:49:24.395Z,96574.56
2022-10-16T15:51:53.735Z,96573.38
2022-10-16T15:54:22.728Z,96577.03
2022-10-16T15:56:50.277Z,96581.28
2022-10-16T15:59:17.792Z,96582.94
2022-10-16T16:01:46.699Z,96583.81
2022-10-16T16:04:31.880Z,96578.34
2022-10-16T16:07:02.107Z,96584.13
2022-10-16T16:09:30.924Z,96579.31
2022-10-16T16:12:01.314Z,96577.84
2022-10-16T16:14:29.695Z,96584.09
2022-10-16T16:16:59.187Z,96580.47
2022-10-16T16:19:26.810Z,96583.09
2022-10-16T16:21:54.380Z,96591.06
2022-10-16T16:24:21.903Z,96591.19
2022-10-16T16:26:49.481Z,96596.63
2022-10-16T16:29:18.103Z,96592.72
2022-10-16T16:31:47.941Z,96600.00
2022-10-16T16:34:17.135Z,96600.06
2022-10-16T16:36:44.648Z,96594.28
2022-10-16T16:39:12.391Z,96593.66
2022-10-16T16:41:39.928Z,96600.19
2022-10-16T16:44:10.278Z,96601.06
2022-10-16T16:46:38.111Z,96616.66
2022-10-16T16:49:05.700Z,96623.56
2022-10-16T16:51:38.313Z,96627.47
2022-10-16T16:54:09.171Z,96628.56
2022-10-16T16:56:36.798Z,96631.47
2022-10-16T16:59:04.903Z,96635.44
2022-10-16T17:01:32.827Z,96635.22
2022-10-16T17:04:03.057Z,96637.94
2022-10-16T17:06:31.427Z,96634.41
2022-10-16T17:09:03.411Z,96640.19
2022-10-16T17:11:31.992Z,96641.88
2022-10-16T17:14:00.951Z,96641.88
2022-10-16T17:16:31.838Z,96649.31
2022-10-16T17:19:02.153Z,96642.91
2022-10-16T17:21:30.619Z,96650.53
2022-10-16T17:23:58.579Z,96654.69
2022-10-16T17:26:27.712Z,96670.03
2022-10-16T17:28:57.024Z,96665.00
2022-10-16T17:31:26.498Z,96667.47
2022-10-16T17:33:54.119Z,96659.63
2022-10-16T17:36:23.047Z,96673.69
2022-10-16T17:38:50.739Z,96666.50
2022-10-16T17:41:20.700Z,96672.09
2022-10-16T17:43:49.847Z,96665.06
2022-10-16T17:46:19.264Z,96672.94
2022-10-16T17:48:49.424Z,96680.38
2022-10-16T17:51:19.904Z,96684.94
2022-10-16T17:53:49.589Z,96685.16
2022-10-16T17:56:17.248Z,96685.78
2022-10-16T17:58:47.704Z,96697.06
2022-10-16T18:01:21.918Z,96702.31
2022-10-16T18:03:51.152Z,96706.66
2022-10-16T18:06:22.920Z,96719.69
2022-10-16T18:08:50.998Z,96724.06
2022-10-16T18:11:19.012Z,96719.28
2022-10-16T18:13:46.699Z,96729.22
2022-10-16T18:16:15.549Z,96725.50
2022-10-16T18:18:45.713Z,96721.16
2022-10-16T18:21:15.267Z,96719.50
2022-10-16T18:23:47.685Z,96717.00
2022-10-16T18:26:20.334Z,96714.75
2022-10-16T18:28:48.383Z,96722.00
2022-10-16T18:31:18.408Z,96725.28
2022-10-16T18:33:50.445Z,96725.94
2022-10-16T18:36:20.769Z,96717.63
2022-10-16T18:38:48.517Z,96719.47
2022-10-16T18:41:16.322Z,96716.78
2022-10-16T18:43:43.941Z,96723.00
2022-10-16T18:46:13.378Z,96726.56
2022-10-16T18:48:41.932Z,96725.94
2022-10-16T18:51:14.498Z,96722.63
2022-10-16T18:53:43.585Z,96722.00
2022-10-16T18:56:12.125Z,96732.16
2022-10-16T18:58:41.461Z,96727.59
2022-10-16T19:01:11.338Z,96725.72
2022-10-16T19:03:44.820Z,96734.22
2022-10-16T19:06:16.302Z,96736.88
2022-10-16T19:08:44.288Z,96740.41
2022-10-16T19:11:13.783Z,96736.25
2022-10-16T19:13:41.742Z,96736.63
2022-10-16T19:16:21.263Z,96733.72
2022-10-16T19:18:49.943Z,96740.38
2022-10-16T19:21:19.612Z,96745.34
2022-10-16T19:23:47.417Z,96741.22
2022-10-16T19:26:17.434Z,96748.25
2022-10-16T19:28:45.461Z,96743.22
2022-10-16T19:31:14.942Z,96740.94
2022-10-16T19:33:42.988Z,96753.16
2022-10-16T19:36:16.397Z,96749.38
2022-10-16T19:38:46.586Z,96758.91
2022-10-16T19:41:15.812Z,96749.41
2022-10-16T19:43:43.719Z,96746.88
2022-10-16T19:46:13.381Z,96747.66
2022-10-16T19:48:41.292Z,96747.25
2022-10-16T19:51:11.982Z,96757.16
2022-10-16T19:53:39.518Z,96753.81
2022-10-16T19:56:15.098Z,96754.34
2022-10-16T19:58:43.439Z,96763.38
2022-10-16T20:01:11.257Z,96760.72
2022-10-16T20:03:39.919Z,96767.16
2022-10-16T20:06:09.142Z,96779.56
2022-10-16T20:08:38.542Z,96777.97
2022-10-16T20:11:07.696Z,96786.97
2022-10-16T20:13:39.882Z,96794.25
2022-10-16T20:16:10.962Z,96787.47
2022-10-16T20:18:38.677Z,96785.97
2022-10-16T20:21:10.544Z,96774.78
2022-10-16T20:23:38.107Z,96793.91
2022-10-16T20:26:05.714Z,96788.75
2022-10-16T20:28:33.711Z,96787.00
2022-10-16T20:31:07.569Z,96784.72
2022-10-16T20:33:35.236Z,96783.97
2022-10-16T20:36:02.763Z,96784.78
2022-10-16T20:38:30.332Z,96794.28
2022-10-16T20:41:04.227Z,96796.59
2022-10-16T20:43:31.945Z,96794.59
2022-10-16T20:46:02.278Z,96797.50
2022-10-16T20:48:30.016Z,96792.25
2022-10-16T20:50:59.437Z,96805.13
2022-10-16T20:53:27.719Z,96804.75
2022-10-16T20:55:55.220Z,96805.59
2022-10-16T20:58:22.739Z,96803.13
2022-10-16T21:00:50.238Z,96802.25
2022-10-16T21:03:19.161Z,96809.41
2022-10-16T21:05:46.656Z,96820.88
2022-10-16T21:08:14.180Z,96818.53
2022-10-16T21:10:41.675Z,96816.84
2022-10-16T21:13:09.184Z,96821.44
2022-10-16T21:15:37.845Z,96826.81
2022-10-16T21:18:05.453Z,96831.47
2022-10-16T21:20:34.394Z,96830.84
2022-10-16T21:23:03.281Z,96829.16
2022-10-16T21:25:30.794Z,96830.66
2022-10-16T21:27:58.312Z,96834.53
2022-10-16T21:30:26.388Z,96826.09
2022-10-16T21:32:53.881Z,96835.72
2022-10-16T21:35:21.398Z,96836.44
2022-10-16T21:37:50.835Z,96830.06
2022-10-16T21:40:18.480Z,96837.97
2022-10-16T21:42:46.021Z,96840.66
2022-10-16T21:45:13.625Z,96838.41
2022-10-16T21:47:41.183Z,96836.53
2022-10-16T21:50:09.397Z,96837.44
2022-10-16T21:52:36.897Z,96832.28
2022-10-16T21:55:06.595Z,96835.94
2022-10-16T21:57:36.030Z,96836.03
2022-10-16T22:00:06.822Z,96844.75
2022-10-16T22:02:36.532Z,96844.84
2022-10-16T22:05:04.271Z,96848.22
2022-10-16T22:07:31.800Z,96843.94
2022-10-16T22:09:59.361Z,96853.91
2022-10-16T22:12:29.962Z,96851.34
2022-10-16T22:14:57.503Z,96856.34
2022-10-16T22:17:25.303Z,96851.34
2022-10-16T22:19:53.003Z,96850.47
2022-10-16T22:22:20.501Z,96851.47
2022-10-16T22:24:48.031Z,96848.50
2022-10-16T22:27:15.608Z,96842.97
2022-10-16T22:29:44.452Z,96844.88
2022-10-16T22:32:12.013Z,96853.91
2022-10-16T22:34:39.508Z,96855.44
2022-10-16T22:37:07.029Z,96861.41
2022-10-16T22:39:34.680Z,96858.00
2022-10-16T22:42:03.511Z,96862.16
2022-10-16T22:44:31.079Z,96866.31
2022-10-16T22:47:00.064Z,96859.00
2022-10-16T22:49:27.647Z,96858.38
2022-10-16T22:51:55.166Z,96864.63
2022-10-16T22:54:22.704Z,96868.25
2022-10-16T22:56:50.235Z,96861.59
2022-10-16T22:59:17.748Z,96862.69
2022-10-16T23:01:45.335Z,96862.78
2022-10-16T23:04:14.248Z,96868.25
2022-10-16T23:06:41.776Z,96861.94
2022-10-16T23:09:11.141Z,96859.84
2022-10-16T23:11:38.749Z,96861.50
2022-10-16T23:14:06.533Z,96862.13
2022-10-16T23:16:34.065Z,96869.16
2022-10-16T23:19:01.681Z,96866.06
2022-10-16T23:21:30.630Z,96865.72
2022-10-16T23:23:58.132Z,96871.66
2022-10-16T23:26:27.050Z,96868.78
2022-10-16T23:28:57.752Z,96867.13
2022-10-16T23:31:25.473Z,96868.34
2022-10-16T23:33:53.116Z,96863.19
2022-10-16T23:36:22.380Z,96870.38
2022-10-16T23:38:52.199Z,96860.91
2022-10-16T23:41:20.931Z,96861.81
2022-10-16T23:43:49.037Z,96854.75
2022-10-16T23:46:16.833Z,96854.81
2022-10-16T23:48:44.458Z,96862.72
2022-10-16T23:51:12.217Z,96867.97
2022-10-16T23:53:39.955Z,96869.16
2022-10-16T23:56:09.376Z,96858.94
2022-10-16T23:58:37.323Z,96866.88
